BDL weather

Bradley International Airport
Hartford, Connecticut, United States

Public forecast

Using degrees Fahrenheit for public forecast. Weather courtesy of forecast.io.

Current aviation weather report (METAR) for Bradley International Airport

Retrieved 2019/10/19 04:51 UTC (48 minutes ago):

KBDL 190451Z 31009KT 10SM SCT033 08/01 A2998 RMK AO2 SLP151 T00830006 401560083

Aviation forecast (TAF) for Bradley International Airport

Retrieved 2019-10-19 00:22 UTC (5 hours ago):

TAF KBDL 182320Z 1900/2006 31006KT P6SM BKN035 FM190100 30005KT P6SM FEW250 FM192200 24003KT P6SM SKC FM200000 00000KT P6SM SKC